Time;durP1;ratioP1;P1;durP2;ratioP2;P2;SDS_P1;SDS_P2;PMS_P1;PMS_P2;Temp;Humidity;BMP_temperature;BMP_pressure;BME280_temperature;BME280_humidity;BME280_pressure;Samples;Min_cycle;Max_cycle;Signal;HPM_P1;HPM_P2
2022/08/28 00:01:50;;;;;;;13.83;5.57;;;;;;;14.64;80.87;101775.00;5061317;28;20543;-86
2022/08/28 00:04:15;;;;;;;12.27;4.80;;;;;;;14.59;81.55;101782.97;5060686;28;20594;-86
2022/08/28 00:06:41;;;;;;;14.83;5.67;;;;;;;14.62;81.66;101778.97;5059479;28;20042;-86
2022/08/28 00:09:06;;;;;;;12.10;5.30;;;;;;;14.64;81.61;101782.34;5011904;28;20598;-86
2022/08/28 00:11:36;;;;;;;14.70;5.07;;;;;;;14.58;81.60;101783.16;5042788;28;20032;-87
2022/08/28 00:14:03;;;;;;;13.53;5.40;;;;;;;14.55;81.52;101787.19;5059977;28;20114;-86
2022/08/28 00:16:30;;;;;;;15.77;6.50;;;;;;;14.48;82.18;101784.50;5059839;28;20043;-87
2022/08/28 00:18:55;;;;;;;14.80;5.30;;;;;;;14.55;81.88;101770.84;5060739;28;20499;-87
2022/08/28 00:21:21;;;;;;;10.87;5.27;;;;;;;14.55;81.63;101778.16;5065152;28;20036;-85
2022/08/28 00:23:47;;;;;;;12.10;5.10;;;;;;;14.48;82.29;101783.63;5064645;28;20037;-87
2022/08/28 00:27:51;;;;;;;13.37;5.20;;;;;;;14.50;82.18;101781.53;5064667;28;20445;-84
2022/08/28 00:28:58;;;;;;;13.30;5.00;;;;;;;14.36;82.13;101778.03;5064978;28;20044;-86
2022/08/28 00:31:23;;;;;;;13.10;5.13;;;;;;;14.38;82.51;101781.34;5064700;28;20507;-86
2022/08/28 00:33:49;;;;;;;14.90;5.53;;;;;;;14.28;82.47;101772.78;5064832;28;20132;-87
2022/08/28 00:36:15;;;;;;;12.40;4.90;;;;;;;14.17;83.21;101772.41;5065333;28;20029;-87
2022/08/28 00:38:40;;;;;;;13.97;5.13;;;;;;;14.27;83.13;101777.41;5064928;28;20044;-86
2022/08/28 00:41:05;;;;;;;15.43;5.13;;;;;;;14.10;83.39;101776.19;5064811;28;20042;-87
2022/08/28 00:43:36;;;;;;;15.03;5.53;;;;;;;14.02;84.44;101783.53;5064331;28;20115;-84
2022/08/28 00:46:03;;;;;;;16.73;5.20;;;;;;;14.07;84.79;101782.06;5064202;28;20048;-88
2022/08/28 00:48:29;;;;;;;13.20;5.20;;;;;;;14.05;84.32;101790.47;5064256;28;20039;-87
2022/08/28 00:53:40;;;;;;;11.57;4.67;;;;;;;14.07;84.65;101795.69;5048535;28;20685;-86
2022/08/28 00:56:09;;;;;;;13.63;5.60;;;;;;;14.03;84.87;101778.91;5064247;28;20036;-86
2022/08/28 00:58:35;;;;;;;14.63;5.37;;;;;;;13.96;85.44;101787.09;5032920;28;20131;-87
2022/08/28 01:01:00;;;;;;;13.70;5.57;;;;;;;13.94;85.56;101783.75;5064320;28;20090;-86
2022/08/28 01:03:26;;;;;;;16.57;5.53;;;;;;;13.95;85.82;101785.44;5064418;28;20494;-86
2022/08/28 01:05:52;;;;;;;13.63;5.50;;;;;;;13.90;85.81;101778.94;5064025;28;20040;-87
2022/08/28 01:08:18;;;;;;;14.77;5.37;;;;;;;13.94;85.85;101785.63;5063915;28;20131;-87
2022/08/28 01:10:48;;;;;;;15.90;5.60;;;;;;;13.93;86.06;101786.69;5065696;28;20032;-87
2022/08/28 01:13:15;;;;;;;13.47;5.70;;;;;;;13.89;86.00;101788.19;5064081;28;20028;-85
2022/08/28 01:15:41;;;;;;;16.17;5.90;;;;;;;13.91;86.16;101797.81;5064373;28;20044;-86
2022/08/28 01:18:10;;;;;;;13.17;5.23;;;;;;;13.93;86.17;101797.59;5062954;28;20127;-86
2022/08/28 01:20:41;;;;;;;14.93;5.30;;;;;;;13.94;86.73;101799.25;5062577;28;20329;-87
2022/08/28 01:23:39;;;;;;;19.03;5.83;;;;;;;13.96;86.28;101795.28;5062802;28;20373;-86
2022/08/28 01:26:04;;;;;;;13.73;5.77;;;;;;;13.90;86.40;101793.41;5062272;28;20404;-86
2022/08/28 01:28:30;;;;;;;10.80;5.40;;;;;;;13.87;86.82;101795.69;5062851;28;20040;-86
2022/08/28 01:30:55;;;;;;;15.37;5.30;;;;;;;13.82;87.25;101791.72;5061930;28;20035;-85
2022/08/28 01:33:20;;;;;;;14.23;5.07;;;;;;;13.76;87.30;101795.31;5044331;28;20063;-88
2022/08/28 01:35:46;;;;;;;14.40;6.33;;;;;;;13.73;87.69;101798.44;5062062;28;20044;-87
2022/08/28 01:38:13;;;;;;;10.80;5.13;;;;;;;13.75;87.64;101804.53;5061924;28;20950;-87
2022/08/28 01:40:43;;;;;;;13.93;5.20;;;;;;;13.71;87.98;101802.41;5062490;28;20690;-87
2022/08/28 01:43:11;;;;;;;17.40;5.30;;;;;;;13.65;87.92;101801.34;5062474;28;20036;-86
2022/08/28 01:45:39;;;;;;;15.60;5.43;;;;;;;13.64;88.17;101803.25;5044532;28;20147;-86
2022/08/28 01:48:06;;;;;;;13.93;5.10;;;;;;;13.61;88.56;101800.97;5044853;28;20082;-85
2022/08/28 01:50:32;;;;;;;13.67;5.23;;;;;;;13.56;88.82;101802.59;5063111;28;20044;-86
2022/08/28 01:52:58;;;;;;;13.87;5.43;;;;;;;13.54;89.25;101802.81;5062699;28;20542;-86
2022/08/28 01:55:23;;;;;;;12.13;5.00;;;;;;;13.53;88.92;101803.03;5062128;28;20032;-87
2022/08/28 01:57:52;;;;;;;14.63;5.63;;;;;;;13.47;89.03;101808.25;5062447;28;20036;-85
2022/08/28 02:00:19;;;;;;;15.40;5.30;;;;;;;13.48;88.96;101801.78;5061817;28;20780;-86
2022/08/28 02:02:46;;;;;;;12.90;5.90;;;;;;;13.48;89.25;101811.84;5062350;28;20107;-85
2022/08/28 02:05:11;;;;;;;16.57;5.43;;;;;;;13.50;88.63;101805.16;5061217;28;20344;-86
2022/08/28 02:07:37;;;;;;;12.90;5.10;;;;;;;13.42;89.29;101808.06;5062550;28;20661;-86
2022/08/28 02:10:06;;;;;;;15.30;5.30;;;;;;;13.41;89.16;101810.97;5061786;28;20043;-87
2022/08/28 02:12:31;;;;;;;14.43;5.20;;;;;;;13.29;89.72;101803.38;5062707;28;20033;-86
2022/08/28 02:14:57;;;;;;;11.90;5.10;;;;;;;13.37;90.07;101809.72;5061856;28;20383;-85
2022/08/28 02:17:22;;;;;;;12.97;5.07;;;;;;;13.25;89.92;101820.34;5062093;28;20052;-86
2022/08/28 02:19:47;;;;;;;15.03;5.53;;;;;;;13.17;90.47;101821.38;5018713;28;1236744;-85
2022/08/28 02:22:13;;;;;;;14.73;5.50;;;;;;;13.23;90.38;101828.72;5064334;28;20135;-85
2022/08/28 02:24:38;;;;;;;12.90;5.30;;;;;;;13.19;90.37;101819.28;5061802;28;20625;-85
2022/08/28 02:27:04;;;;;;;12.43;5.03;;;;;;;13.14;90.28;101819.91;5062685;28;20624;-86
2022/08/28 02:29:30;;;;;;;12.43;4.97;;;;;;;13.11;90.53;101822.16;5062199;28;20119;-87
2022/08/28 02:31:55;;;;;;;10.97;5.00;;;;;;;13.05;90.86;101828.44;5062552;28;20035;-86
2022/08/28 02:34:20;;;;;;;12.97;5.10;;;;;;;13.05;91.72;101823.84;5061733;28;20135;-85
2022/08/28 02:36:46;;;;;;;14.30;5.73;;;;;;;12.94;92.13;101825.25;5062151;28;20614;-86
2022/08/28 02:39:12;;;;;;;12.67;5.10;;;;;;;12.90;92.19;101825.88;5062473;28;20036;-86
2022/08/28 02:41:37;;;;;;;13.27;5.77;;;;;;;12.81;92.42;101827.94;5063115;28;20044;-87
2022/08/28 02:44:03;;;;;;;14.60;5.90;;;;;;;12.83;92.85;101828.56;5061159;28;20062;-88
2022/08/28 02:46:29;;;;;;;15.87;5.80;;;;;;;12.71;93.34;101824.75;5062768;28;20070;-85
2022/08/28 02:48:55;;;;;;;13.60;5.63;;;;;;;12.74;93.22;101824.34;5056156;28;20063;-87
2022/08/28 02:51:20;;;;;;;14.00;5.60;;;;;;;12.75;93.87;101828.75;5060829;28;20039;-87
2022/08/28 02:54:05;;;;;;;15.00;5.90;;;;;;;12.76;93.74;101830.44;5062521;28;20448;-85
2022/08/28 02:56:31;;;;;;;15.30;6.03;;;;;;;12.75;94.26;101828.75;5062195;28;20032;-86
2022/08/28 02:59:12;;;;;;;14.10;5.97;;;;;;;12.73;93.94;101825.38;5043983;28;20036;-85
2022/08/28 03:01:37;;;;;;;13.30;6.03;;;;;;;12.74;94.10;101825.19;5061638;28;20043;-85
2022/08/28 03:04:04;;;;;;;11.70;6.13;;;;;;;12.68;94.70;101822.44;5062060;28;20036;-85
2022/08/28 03:06:30;;;;;;;11.97;6.10;;;;;;;12.80;93.89;101821.66;5062399;28;20170;-85
2022/08/28 03:08:56;;;;;;;14.87;5.90;;;;;;;12.78;94.06;101818.31;5061563;28;20041;-86
2022/08/28 03:11:22;;;;;;;13.83;6.03;;;;;;;12.83;93.63;101825.84;5061259;28;20051;-84
2022/08/28 03:13:48;;;;;;;12.80;5.67;;;;;;;12.85;93.42;101823.75;5061598;28;20044;-85
2022/08/28 03:16:14;;;;;;;17.10;6.07;;;;;;;12.84;93.38;101822.09;5061443;28;20075;-86
2022/08/28 03:19:12;;;;;;;14.80;6.10;;;;;;;12.87;93.17;101829.84;5061555;28;20131;-84
2022/08/28 03:21:37;;;;;;;15.63;6.27;;;;;;;12.81;93.28;101833.38;5060605;28;20384;-85
2022/08/28 03:24:03;;;;;;;13.83;5.77;;;;;;;12.81;93.31;101833.38;5061554;28;20044;-87
2022/08/28 03:26:29;;;;;;;15.73;5.93;;;;;;;12.80;93.53;101829.00;5061420;28;20067;-86
2022/08/28 03:28:56;;;;;;;14.43;5.87;;;;;;;12.79;93.75;101835.47;5061344;28;20467;-85
2022/08/28 03:31:25;;;;;;;14.07;6.47;;;;;;;12.61;94.48;101817.81;5060876;28;20078;-86
2022/08/28 03:33:52;;;;;;;17.40;6.70;;;;;;;12.58;93.97;101834.53;5061657;28;20036;-84
2022/08/28 03:36:21;;;;;;;15.40;5.80;;;;;;;12.55;94.03;101842.25;5060733;28;20028;-86
2022/08/28 03:38:48;;;;;;;15.90;6.00;;;;;;;12.47;94.81;101832.34;5043103;28;20043;-86
2022/08/28 03:41:16;;;;;;;14.37;6.03;;;;;;;12.58;94.70;101828.22;5061141;28;20031;-86
2022/08/28 03:43:41;;;;;;;15.70;5.80;;;;;;;12.51;94.66;101841.78;5062171;28;20036;-86
2022/08/28 03:46:11;;;;;;;14.73;6.07;;;;;;;12.55;94.71;101845.81;5060881;28;20046;-87
2022/08/28 03:48:53;;;;;;;15.53;6.10;;;;;;;12.61;94.33;101846.88;5062687;28;20119;-85
2022/08/28 03:51:28;;;;;;;16.60;6.27;;;;;;;12.59;94.21;101848.94;5061511;28;20048;-86
2022/08/28 03:53:55;;;;;;;15.73;5.90;;;;;;;12.58;94.34;101849.97;5061198;28;20032;-86
2022/08/28 03:56:24;;;;;;;13.33;5.83;;;;;;;12.55;94.36;101855.84;5060248;28;20036;-85
2022/08/28 03:58:52;;;;;;;15.77;6.03;;;;;;;12.52;94.16;101853.53;5042897;28;20716;-86
2022/08/28 04:01:19;;;;;;;15.10;6.23;;;;;;;12.45;94.12;101853.47;5060925;28;20128;-86
2022/08/28 04:03:45;;;;;;;14.20;6.13;;;;;;;12.43;94.84;101859.13;5059499;28;20036;-86
2022/08/28 04:06:11;;;;;;;15.10;6.30;;;;;;;12.45;94.95;101858.91;5043196;28;20074;-87
2022/08/28 04:08:37;;;;;;;13.23;5.40;;;;;;;12.48;94.68;101855.78;5061156;28;20102;-86
2022/08/28 04:11:02;;;;;;;15.43;6.00;;;;;;;12.38;94.65;101855.31;5060504;28;20037;-85
2022/08/28 04:13:28;;;;;;;14.30;5.77;;;;;;;12.45;94.92;101861.63;5061524;28;20032;-86
2022/08/28 04:15:56;;;;;;;14.17;6.13;;;;;;;12.37;94.49;101859.91;5060158;28;20035;-85
2022/08/28 04:18:21;;;;;;;12.67;6.30;;;;;;;12.40;95.24;101859.53;5041896;28;20048;-85
2022/08/28 04:21:04;;;;;;;17.10;5.97;;;;;;;12.38;95.65;101855.31;5059995;28;20040;-86
2022/08/28 04:23:30;;;;;;;14.47;6.10;;;;;;;12.29;95.43;101852.75;5060176;28;20032;-86
2022/08/28 04:25:56;;;;;;;13.83;6.20;;;;;;;12.10;95.54;101853.44;5059956;28;20062;-86
2022/08/28 04:28:22;;;;;;;15.63;5.87;;;;;;;12.10;96.51;101853.44;5058437;28;20128;-86
2022/08/28 04:30:53;;;;;;;14.70;6.53;;;;;;;12.08;96.32;101860.97;5059983;28;20048;-86
2022/08/28 04:33:19;;;;;;;16.10;6.03;;;;;;;12.10;96.37;101858.88;5042920;28;20033;-86
2022/08/28 04:35:44;;;;;;;12.70;5.70;;;;;;;12.02;96.70;101859.84;5060261;28;20032;-86
2022/08/28 04:38:09;;;;;;;14.67;6.30;;;;;;;12.02;96.41;101868.00;5060834;28;20594;-86
2022/08/28 04:40:38;;;;;;;12.90;6.00;;;;;;;11.86;96.66;101863.66;5060381;28;20642;-87
2022/08/28 04:43:04;;;;;;;14.30;6.33;;;;;;;11.89;96.66;101876.03;5061071;28;20389;-86
2022/08/28 04:45:30;;;;;;;16.03;6.60;;;;;;;11.83;96.90;101869.47;5060156;28;20036;-86
2022/08/28 04:47:55;;;;;;;10.80;6.27;;;;;;;11.87;97.62;101876.22;5060973;28;20042;-87
2022/08/28 04:50:20;;;;;;;14.27;6.63;;;;;;;11.85;97.59;101881.00;5060398;28;20550;-85
2022/08/28 04:52:46;;;;;;;16.13;6.90;;;;;;;11.87;97.61;101878.94;5060917;28;20036;-86
2022/08/28 04:55:11;;;;;;;16.47;6.50;;;;;;;11.94;97.62;101882.56;5060463;28;20036;-86
2022/08/28 04:57:36;;;;;;;15.20;6.50;;;;;;;11.92;97.80;101873.72;5061320;28;20044;-86
2022/08/28 05:00:05;;;;;;;16.63;6.93;;;;;;;11.94;97.68;101876.25;5060245;28;20167;-84
2022/08/28 05:02:30;;;;;;;15.83;7.00;;;;;;;11.94;97.41;101882.56;5043201;28;20047;-84
2022/08/28 05:04:56;;;;;;;16.00;6.40;;;;;;;11.91;97.82;101876.66;5060240;28;20048;-85
2022/08/28 05:07:21;;;;;;;15.33;6.70;;;;;;;12.02;97.87;101886.19;5063863;28;20075;-85
2022/08/28 05:09:47;;;;;;;13.47;6.70;;;;;;;11.93;97.85;101878.13;5046091;28;20036;-84
2022/08/28 05:12:16;;;;;;;18.17;6.97;;;;;;;11.97;98.23;101882.19;5063700;28;21213;-86
2022/08/28 05:14:41;;;;;;;16.43;6.90;;;;;;;11.90;98.22;101891.25;5063709;28;20115;-86
2022/08/28 05:17:08;;;;;;;14.17;6.60;;;;;;;11.97;98.69;101893.03;5063946;28;20456;-85
2022/08/28 05:19:33;;;;;;;15.40;6.83;;;;;;;11.94;98.51;101892.53;5063367;28;20504;-86
2022/08/28 05:21:59;;;;;;;15.27;7.07;;;;;;;11.93;98.83;101908.00;5063362;28;20155;-87
2022/08/28 05:24:24;;;;;;;18.40;7.40;;;;;;;11.90;99.42;101902.97;5063848;28;20032;-86
2022/08/28 05:26:50;;;;;;;16.30;7.30;;;;;;;11.85;98.97;101900.00;5063371;28;20066;-85
2022/08/28 05:29:16;;;;;;;17.73;7.30;;;;;;;11.91;99.51;101898.38;5062989;28;20037;-86
2022/08/28 05:31:41;;;;;;;14.00;7.43;;;;;;;11.93;98.99;101904.47;5044493;28;20041;-84
2022/08/28 05:34:09;;;;;;;15.90;7.50;;;;;;;11.96;99.06;101912.25;5063246;28;21382;-86
2022/08/28 05:36:36;;;;;;;17.23;7.73;;;;;;;11.88;99.31;101909.63;5063708;28;20096;-85
2022/08/28 05:39:28;;;;;;;15.57;8.40;;;;;;;11.96;100.00;101915.78;5045716;28;20051;-86
2022/08/28 05:42:15;;;;;;;15.40;7.50;;;;;;;11.97;99.91;101922.09;5063178;28;20042;-86
2022/08/28 05:44:40;;;;;;;12.50;7.70;;;;;;;11.90;99.71;101908.41;5045298;28;20523;-86
2022/08/28 05:47:05;;;;;;;18.37;7.80;;;;;;;11.92;100.00;101917.19;5063009;28;20190;-87
2022/08/28 05:49:31;;;;;;;18.17;7.90;;;;;;;12.04;99.94;101917.53;5031589;28;20040;-85
2022/08/28 05:51:56;;;;;;;18.47;8.10;;;;;;;12.05;99.92;101915.66;5063155;28;21319;-86
2022/08/28 05:54:21;;;;;;;14.83;8.00;;;;;;;12.13;99.71;101912.81;5044611;28;20127;-86
2022/08/28 05:56:47;;;;;;;14.03;8.30;;;;;;;12.23;99.74;101909.78;5063095;28;20048;-87
2022/08/28 05:59:14;;;;;;;16.37;8.27;;;;;;;12.28;99.95;101923.59;5044101;28;20044;-88
2022/08/28 06:01:46;;;;;;;16.80;8.07;;;;;;;12.40;99.68;101913.03;5062905;28;20037;-85
2022/08/28 06:04:13;;;;;;;16.73;8.30;;;;;;;12.35;100.00;101920.91;5063477;28;20040;-86
2022/08/28 06:06:40;;;;;;;16.33;7.70;;;;;;;12.48;100.00;101921.88;5062671;28;21662;-87
2022/08/28 06:09:09;;;;;;;17.37;8.40;;;;;;;12.48;100.00;101926.47;5062725;28;20068;-86
2022/08/28 06:11:37;;;;;;;18.33;8.50;;;;;;;12.55;100.00;101924.66;5062529;28;20222;-87
2022/08/28 06:14:08;;;;;;;18.07;8.97;;;;;;;12.67;100.00;101927.63;5061115;28;20046;-86
2022/08/28 06:16:36;;;;;;;15.17;8.57;;;;;;;12.78;100.00;101929.81;5063303;28;20522;-86
2022/08/28 06:19:01;;;;;;;16.03;8.40;;;;;;;12.92;99.82;101930.72;5040457;28;20056;-86
2022/08/28 06:21:28;;;;;;;17.87;8.13;;;;;;;12.98;99.44;101931.81;5042687;28;20071;-86
2022/08/28 06:24:31;;;;;;;17.37;7.60;;;;;;;13.10;98.59;101937.50;5043090;28;20028;-86
2022/08/28 06:26:58;;;;;;;15.10;8.10;;;;;;;13.28;98.67;101931.53;5041006;28;20060;-87
2022/08/28 06:29:24;;;;;;;19.33;8.30;;;;;;;13.40;98.96;101929.09;5041042;28;20029;-86
2022/08/28 06:31:58;;;;;;;15.17;7.40;;;;;;;13.53;97.31;101929.13;5040178;28;20039;-87
2022/08/28 06:34:24;;;;;;;14.80;6.38;;;;;;;13.64;96.39;101928.53;5057975;28;20538;-86
2022/08/28 06:36:50;;;;;;;12.43;5.80;;;;;;;13.77;95.80;101938.59;5041959;28;20041;-87
2022/08/28 06:39:15;;;;;;;15.57;5.40;;;;;;;13.90;94.78;101939.66;5058093;28;20041;-88
2022/08/28 06:42:06;;;;;;;13.47;5.73;;;;;;;14.05;94.41;101942.19;5042211;28;20718;-84
2022/08/28 06:44:31;;;;;;;11.43;5.27;;;;;;;14.12;93.09;101943.88;5041660;28;20044;-85
2022/08/28 06:46:57;;;;;;;13.27;5.50;;;;;;;14.25;91.79;101942.22;5042766;28;20555;-86
2022/08/28 06:49:24;;;;;;;14.43;4.73;;;;;;;14.37;90.38;101940.53;5042710;28;20381;-84
2022/08/28 06:51:49;;;;;;;15.07;4.87;;;;;;;14.53;89.85;101944.72;5041916;28;20033;-84
2022/08/28 06:54:16;;;;;;;15.50;4.70;;;;;;;14.70;89.27;101956.09;5041555;28;20040;-85
2022/08/28 06:56:41;;;;;;;15.37;4.43;;;;;;;14.79;88.86;101962.13;5042469;28;20090;-85
2022/08/28 06:59:07;;;;;;;9.97;4.20;;;;;;;14.98;88.00;101950.31;5041970;28;20036;-87
2022/08/28 07:01:35;;;;;;;15.93;4.50;;;;;;;15.10;88.55;101953.25;5041600;28;20408;-85
2022/08/28 07:04:03;;;;;;;10.77;4.07;;;;;;;15.23;86.19;101956.97;5042304;28;20044;-85
2022/08/28 07:06:35;;;;;;;14.90;4.63;;;;;;;15.29;84.96;101956.94;5041105;28;20061;-86
2022/08/28 07:09:04;;;;;;;11.20;3.47;;;;;;;15.40;85.04;101965.53;5041639;28;20061;-84
2022/08/28 07:11:31;;;;;;;13.67;3.90;;;;;;;15.52;84.23;101958.31;5041338;28;20044;-85
2022/08/28 07:13:57;;;;;;;11.63;3.90;;;;;;;15.65;83.91;101958.25;5043021;28;20197;-85
2022/08/28 07:16:26;;;;;;;10.40;4.23;;;;;;;15.90;84.51;101954.78;5041599;28;20036;-86
2022/08/28 07:18:52;;;;;;;8.57;3.60;;;;;;;15.99;82.69;101952.59;5054319;28;20106;-86
2022/08/28 07:21:19;;;;;;;11.43;4.17;;;;;;;16.11;82.26;101953.56;5042900;28;20032;-86
2022/08/28 07:23:45;;;;;;;12.50;3.40;;;;;;;16.13;78.96;101954.19;5061690;28;20036;-84
2022/08/28 07:26:14;;;;;;;11.80;3.70;;;;;;;16.27;78.93;101954.91;5061014;28;20052;-85
2022/08/28 07:29:14;;;;;;;10.43;3.30;;;;;;;16.31;78.67;101950.69;5060645;28;20074;-83
2022/08/28 07:31:42;;;;;;;10.63;3.20;;;;;;;16.47;77.61;101948.44;5060884;28;20035;-86
2022/08/28 07:34:09;;;;;;;9.43;3.30;;;;;;;16.64;78.35;101954.19;5043416;28;20036;-84
2022/08/28 07:36:35;;;;;;;10.43;3.30;;;;;;;16.71;76.37;101961.25;5060940;28;20119;-84
2022/08/28 07:39:01;;;;;;;7.20;2.63;;;;;;;16.78;74.10;101969.41;5061502;28;20123;-87
2022/08/28 07:41:30;;;;;;;9.00;3.10;;;;;;;16.78;73.48;101965.81;5046169;28;20038;-84
2022/08/28 07:46:41;;;;;;;10.83;3.40;;;;;;;16.95;73.06;101969.66;5061018;28;20048;-86
2022/08/28 07:49:07;;;;;;;7.17;2.73;;;;;;;17.12;73.44;101971.81;5061254;28;20040;-83
2022/08/28 07:51:33;;;;;;;9.97;2.70;;;;;;;17.12;71.59;101964.44;5060868;28;20060;-86
2022/08/28 07:53:59;;;;;;;9.13;2.60;;;;;;;17.27;71.69;101969.53;5062074;28;20135;-85
2022/08/28 07:56:28;;;;;;;10.13;2.87;;;;;;;17.46;72.60;101977.72;5060985;28;20055;-83
2022/08/28 07:58:55;;;;;;;12.43;2.90;;;;;;;17.73;70.94;101983.66;5061360;28;20033;-85
2022/08/28 08:01:21;;;;;;;10.07;2.70;;;;;;;17.79;69.54;101979.16;5061483;28;20044;-86
2022/08/28 08:03:46;;;;;;;9.27;2.67;;;;;;;17.91;69.87;101976.47;5061779;28;20036;-85
2022/08/28 08:06:12;;;;;;;9.57;2.70;;;;;;;17.78;68.92;101983.00;5058347;28;20040;-83
2022/08/28 08:08:39;;;;;;;8.50;2.50;;;;;;;17.74;68.72;101990.00;5030847;28;20292;-84
2022/08/28 08:11:09;;;;;;;10.63;2.60;;;;;;;17.81;69.28;101990.75;5061201;28;20036;-88
2022/08/28 08:13:35;;;;;;;9.47;2.50;;;;;;;17.81;68.30;101990.75;5061197;28;20361;-85
2022/08/28 08:16:21;;;;;;;8.33;2.70;;;;;;;18.09;69.87;101992.91;5060487;28;20494;-85
2022/08/28 08:18:48;;;;;;;8.57;2.30;;;;;;;18.18;69.47;101996.13;5061487;28;20471;-85
2022/08/28 08:21:16;;;;;;;5.22;2.38;;;;;;;17.98;67.89;101991.78;5060352;28;20051;-85
2022/08/28 08:23:42;;;;;;;8.52;2.63;;;;;;;18.04;67.74;101993.59;5061430;28;20036;-85
2022/08/28 08:26:10;;;;;;;5.65;2.20;;;;;;;18.20;67.33;101992.09;5060888;28;20761;-87
2022/08/28 08:28:37;;;;;;;10.55;2.38;;;;;;;18.28;67.12;101996.41;5029225;28;20863;-85
2022/08/28 08:31:07;;;;;;;10.75;2.92;;;;;;;18.35;63.84;101994.38;5060211;28;20048;-85
2022/08/28 08:33:34;;;;;;;5.72;2.53;;;;;;;18.22;65.31;101995.44;5060389;28;20293;-84
2022/08/28 08:36:00;;;;;;;6.88;2.10;;;;;;;18.31;64.36;101989.63;5061181;28;20055;-88
2022/08/28 08:38:29;;;;;;;6.60;2.10;;;;;;;18.67;65.12;101999.56;5060652;28;20123;-86
2022/08/28 08:40:54;;;;;;;11.65;2.75;;;;;;;18.44;62.48;101994.03;5030226;28;20032;-87
2022/08/28 08:43:21;;;;;;;5.32;2.05;;;;;;;18.26;63.02;101998.53;5064579;28;20046;-81
2022/08/28 08:45:48;;;;;;;11.63;2.40;;;;;;;18.23;63.03;101993.53;5064792;28;20036;-85
2022/08/28 08:48:25;;;;;;;6.00;2.20;;;;;;;18.22;62.44;101995.44;5064274;28;20036;-86
2022/08/28 08:50:52;;;;;;;5.55;2.10;;;;;;;18.35;63.00;101999.88;5065489;28;20043;-88
2022/08/28 08:53:30;;;;;;;6.70;2.30;;;;;;;18.84;62.12;101998.84;5049492;28;21441;-85
2022/08/28 08:55:57;;;;;;;5.18;2.00;;;;;;;19.13;62.80;102001.69;5064143;28;20040;-86
2022/08/28 08:58:44;;;;;;;7.22;2.33;;;;;;;19.56;60.96;102001.22;5064248;28;20039;-84
2022/08/28 09:01:27;;;;;;;8.45;2.15;;;;;;;19.89;61.37;101988.69;5063773;28;20028;-86
2022/08/28 09:03:59;;;;;;;6.30;2.00;;;;;;;20.31;59.24;101998.50;5064627;28;20032;-88
2022/08/28 09:06:47;;;;;;;7.65;2.33;;;;;;;20.38;56.75;101993.66;5063835;28;20381;-87
2022/08/28 09:09:49;;;;;;;9.85;2.42;;;;;;;20.58;58.77;101995.09;5064180;28;20391;-90
2022/08/28 09:12:24;;;;;;;4.72;2.10;;;;;;;20.58;56.96;101989.56;5019908;28;20159;-86
2022/08/28 09:15:17;;;;;;;7.35;2.30;;;;;;;20.31;55.00;101998.50;5064588;28;20479;-87
2022/08/28 09:17:48;;;;;;;6.07;1.92;;;;;;;20.23;55.62;101999.72;5049047;28;20052;-87
2022/08/28 09:20:19;;;;;;;6.70;2.30;;;;;;;20.15;56.06;102007.56;5063902;28;20303;-87
2022/08/28 09:22:46;;;;;;;6.00;2.10;;;;;;;20.67;55.30;102003.75;5045494;28;20067;-84
2022/08/28 09:25:47;;;;;;;6.22;2.08;;;;;;;20.44;53.77;102002.84;5064110;28;20059;-88
2022/08/28 09:28:26;;;;;;;5.40;2.13;;;;;;;20.24;55.88;102000.59;5063200;28;20131;-88
2022/08/28 09:31:30;;;;;;;5.53;2.20;;;;;;;20.60;55.07;101994.84;5063533;28;20119;-85
2022/08/28 09:34:16;;;;;;;5.82;1.80;;;;;;;20.79;53.79;101989.91;5060283;28;20064;-86
2022/08/28 09:36:42;;;;;;;7.35;2.20;;;;;;;20.96;52.83;101990.72;5063295;28;20039;-87
2022/08/28 09:39:21;;;;;;;8.48;2.10;;;;;;;21.52;51.70;101998.88;5063643;28;20484;-90
2022/08/28 09:45:12;;;;;;;6.65;2.40;;;;;;;21.91;50.69;101995.19;5062692;28;20531;-88
2022/08/28 09:47:47;;;;;;;6.03;2.08;;;;;;;21.87;52.37;101988.53;5064150;28;20035;-89
2022/08/28 09:50:20;;;;;;;6.40;2.10;;;;;;;22.09;48.40;101997.56;5064013;28;20131;-90
2022/08/28 09:52:46;;;;;;;5.10;1.98;;;;;;;22.51;50.09;101998.78;5063610;28;20036;-87
2022/08/28 09:55:21;;;;;;;6.85;2.10;;;;;;;22.19;49.00;101996.00;5063331;28;20085;-90
2022/08/28 09:57:47;;;;;;;3.65;2.03;;;;;;;22.24;50.24;101988.59;5064189;28;20070;-88
2022/08/28 10:00:13;;;;;;;7.32;2.45;;;;;;;22.28;50.77;101997.19;5061658;28;20044;-88
2022/08/28 10:03:02;;;;;;;6.35;2.08;;;;;;;21.55;51.15;101994.78;5063346;28;20079;-86
2022/08/28 10:05:37;;;;;;;5.75;2.03;;;;;;;20.95;52.04;101994.56;5063212;28;20032;-85
2022/08/28 10:08:24;;;;;;;6.65;2.50;;;;;;;20.82;53.99;101992.16;5062605;28;20028;-88
2022/08/28 10:10:57;;;;;;;5.95;2.20;;;;;;;20.53;52.62;101992.25;5062594;28;20037;-88
2022/08/28 10:13:30;;;;;;;6.70;2.20;;;;;;;20.44;54.07;101994.59;5061408;28;20036;-87
2022/08/28 10:16:25;;;;;;;5.65;2.20;;;;;;;21.06;51.70;101995.53;5062882;28;21533;-84
2022/08/28 10:19:01;;;;;;;8.27;2.03;;;;;;;21.29;51.65;101994.44;5051804;28;20079;-89
2022/08/28 10:21:44;;;;;;;8.18;2.05;;;;;;;21.74;50.75;101995.28;5061514;28;20037;-89
2022/08/28 10:24:22;;;;;;;5.13;1.85;;;;;;;22.20;49.14;101997.66;5062800;28;20063;-87
2022/08/28 10:27:03;;;;;;;5.07;2.00;;;;;;;22.32;48.25;101991.97;5062862;28;20032;-88
2022/08/28 10:29:36;;;;;;;5.20;1.98;;;;;;;22.29;47.75;101989.72;5063252;28;20036;-88
2022/08/28 10:32:41;;;;;;;5.43;1.90;;;;;;;22.47;46.84;101988.53;5048082;28;20511;-92
2022/08/28 10:35:13;;;;;;;4.25;1.90;;;;;;;22.67;46.65;101996.97;5062564;28;20153;-88
2022/08/28 10:37:47;;;;;;;7.68;1.90;;;;;;;23.27;48.81;101996.78;5062589;28;21661;-86
2022/08/28 10:40:17;;;;;;;5.75;1.95;;;;;;;23.00;45.68;101985.84;5030518;28;20037;-89
2022/08/28 10:42:48;;;;;;;4.90;1.58;;;;;;;23.62;44.63;101989.69;5062707;28;20032;-90
2022/08/28 10:45:18;;;;;;;3.80;1.70;;;;;;;23.86;45.60;101989.22;5061806;28;20040;-88
2022/08/28 10:47:56;;;;;;;4.10;1.80;;;;;;;23.66;44.98;101996.34;5062461;28;20115;-89
2022/08/28 10:50:27;;;;;;;8.90;2.08;;;;;;;23.63;44.67;101998.84;5063138;28;20127;-91
2022/08/28 10:53:01;;;;;;;5.60;1.80;;;;;;;24.14;44.16;101993.44;5064110;28;20043;-92
2022/08/28 10:55:37;;;;;;;6.88;1.90;;;;;;;24.02;44.72;101990.91;5062612;28;20227;-88
2022/08/28 10:58:05;;;;;;;5.18;1.90;;;;;;;23.61;44.23;101996.34;5062427;28;20032;-87
2022/08/28 11:00:33;;;;;;;5.35;1.95;;;;;;;23.35;43.32;101987.97;5061018;28;20158;-86
2022/08/28 11:03:06;;;;;;;4.35;2.10;;;;;;;22.84;44.52;101988.50;5061909;28;20028;-85
2022/08/28 11:05:40;;;;;;;6.35;1.92;;;;;;;22.66;46.05;102000.00;5061203;28;20119;-92
2022/08/28 11:08:10;;;;;;;4.45;1.92;;;;;;;22.37;45.65;101989.28;5060877;28;20139;-91
2022/08/28 11:10:45;;;;;;;5.90;1.90;;;;;;;23.00;45.63;101991.38;5061411;28;20039;-91
2022/08/28 11:13:11;;;;;;;4.22;1.73;;;;;;;22.78;44.77;101992.34;5060537;28;20032;-88
2022/08/28 11:15:47;;;;;;;4.60;2.00;;;;;;;22.91;44.76;101997.38;5059212;28;20033;-88
2022/08/28 11:18:12;;;;;;;4.63;1.88;;;;;;;22.91;43.91;101991.84;5061128;28;20047;-88
2022/08/28 11:20:39;;;;;;;5.78;1.90;;;;;;;22.73;44.59;101986.78;5060464;28;20032;-91
2022/08/28 11:23:12;;;;;;;4.47;1.80;;;;;;;22.67;44.38;101991.44;5060920;28;20032;-85
2022/08/28 11:25:40;;;;;;;2.87;1.80;;;;;;;22.43;45.71;101982.72;5060295;28;20476;-88
2022/08/28 11:28:24;;;;;;;5.20;1.80;;;;;;;22.23;45.40;101988.84;5059628;28;20293;-86
2022/08/28 11:31:04;;;;;;;3.47;1.77;;;;;;;22.28;45.81;101997.19;5055346;28;20037;-86
2022/08/28 11:33:43;;;;;;;3.40;1.83;;;;;;;22.01;45.63;101995.28;5057692;28;20048;-90
2022/08/28 11:36:31;;;;;;;5.40;1.63;;;;;;;22.46;45.71;101992.41;5057640;28;20024;-90
2022/08/28 11:39:13;;;;;;;5.07;2.05;;;;;;;22.63;45.46;101994.97;5016313;28;20086;-88
2022/08/28 11:42:10;;;;;;;5.13;2.00;;;;;;;22.07;46.11;101988.72;5057829;28;20255;-88